sensor_id;sensor_type;location;lat;lon;timestamp;P1;durP1;ratioP1;P2;durP2;ratioP2
32333;SDS011;18810;53.040;8.850;2023-06-14T00:00:38;5.45;;;3.42;;
32333;SDS011;18810;53.040;8.850;2023-06-14T00:03:09;8.32;;;3.50;;
32333;SDS011;18810;53.040;8.850;2023-06-14T00:05:37;4.43;;;3.33;;
32333;SDS011;18810;53.040;8.850;2023-06-14T00:08:08;5.93;;;3.38;;
32333;SDS011;18810;53.040;8.850;2023-06-14T00:10:38;6.50;;;3.50;;
32333;SDS011;18810;53.040;8.850;2023-06-14T00:13:06;5.65;;;3.47;;
32333;SDS011;18810;53.040;8.850;2023-06-14T00:15:33;9.57;;;3.63;;
32333;SDS011;18810;53.040;8.850;2023-06-14T00:17:59;5.53;;;3.80;;
32333;SDS011;18810;53.040;8.850;2023-06-14T00:20:26;7.78;;;3.40;;
32333;SDS011;18810;53.040;8.850;2023-06-14T00:22:53;6.20;;;3.63;;
32333;SDS011;18810;53.040;8.850;2023-06-14T00:25:20;6.53;;;3.53;;
32333;SDS011;18810;53.040;8.850;2023-06-14T00:27:55;6.38;;;3.60;;
32333;SDS011;18810;53.040;8.850;2023-06-14T00:30:22;9.17;;;3.90;;
32333;SDS011;18810;53.040;8.850;2023-06-14T00:32:48;7.40;;;4.20;;
32333;SDS011;18810;53.040;8.850;2023-06-14T00:35:15;6.97;;;3.85;;
32333;SDS011;18810;53.040;8.850;2023-06-14T00:37:41;6.63;;;3.53;;
32333;SDS011;18810;53.040;8.850;2023-06-14T00:40:06;6.10;;;3.65;;
32333;SDS011;18810;53.040;8.850;2023-06-14T00:42:32;5.35;;;4.20;;
32333;SDS011;18810;53.040;8.850;2023-06-14T00:44:59;5.95;;;3.92;;
32333;SDS011;18810;53.040;8.850;2023-06-14T00:47:25;5.18;;;3.70;;
32333;SDS011;18810;53.040;8.850;2023-06-14T00:49:52;9.77;;;4.10;;
32333;SDS011;18810;53.040;8.850;2023-06-14T00:52:19;7.53;;;4.28;;
32333;SDS011;18810;53.040;8.850;2023-06-14T00:54:45;6.90;;;3.63;;
32333;SDS011;18810;53.040;8.850;2023-06-14T00:57:11;6.32;;;3.90;;
32333;SDS011;18810;53.040;8.850;2023-06-14T00:59:39;7.65;;;3.55;;
32333;SDS011;18810;53.040;8.850;2023-06-14T01:02:10;3.92;;;3.33;;
32333;SDS011;18810;53.040;8.850;2023-06-14T01:04:36;7.78;;;3.83;;
32333;SDS011;18810;53.040;8.850;2023-06-14T01:15:35;6.15;;;3.45;;
32333;SDS011;18810;53.040;8.850;2023-06-14T01:18:02;5.47;;;3.75;;
32333;SDS011;18810;53.040;8.850;2023-06-14T01:20:30;4.32;;;3.65;;
32333;SDS011;18810;53.040;8.850;2023-06-14T01:22:58;5.57;;;3.92;;
32333;SDS011;18810;53.040;8.850;2023-06-14T01:25:24;4.68;;;4.10;;
32333;SDS011;18810;53.040;8.850;2023-06-14T01:28:01;9.48;;;3.75;;
32333;SDS011;18810;53.040;8.850;2023-06-14T01:30:29;6.32;;;3.88;;
32333;SDS011;18810;53.040;8.850;2023-06-14T01:32:58;7.38;;;4.20;;
32333;SDS011;18810;53.040;8.850;2023-06-14T01:35:24;7.65;;;3.90;;
32333;SDS011;18810;53.040;8.850;2023-06-14T01:37:50;5.88;;;4.10;;
32333;SDS011;18810;53.040;8.850;2023-06-14T01:40:17;8.35;;;4.10;;
32333;SDS011;18810;53.040;8.850;2023-06-14T01:42:46;3.80;;;3.50;;
32333;SDS011;18810;53.040;8.850;2023-06-14T01:45:13;6.65;;;3.70;;
32333;SDS011;18810;53.040;8.850;2023-06-14T01:47:40;5.88;;;4.10;;
32333;SDS011;18810;53.040;8.850;2023-06-14T01:50:06;6.47;;;4.32;;
32333;SDS011;18810;53.040;8.850;2023-06-14T01:52:32;8.00;;;4.25;;
32333;SDS011;18810;53.040;8.850;2023-06-14T01:54:58;6.65;;;4.53;;
32333;SDS011;18810;53.040;8.850;2023-06-14T01:57:27;6.53;;;4.30;;
32333;SDS011;18810;53.040;8.850;2023-06-14T01:59:52;5.90;;;4.35;;
32333;SDS011;18810;53.040;8.850;2023-06-14T02:02:18;5.78;;;4.15;;
32333;SDS011;18810;53.040;8.850;2023-06-14T02:04:44;6.43;;;3.90;;
32333;SDS011;18810;53.040;8.850;2023-06-14T02:07:12;9.13;;;4.55;;
32333;SDS011;18810;53.040;8.850;2023-06-14T02:09:39;4.22;;;3.67;;
32333;SDS011;18810;53.040;8.850;2023-06-14T02:12:05;7.40;;;3.90;;
32333;SDS011;18810;53.040;8.850;2023-06-14T02:14:31;7.85;;;4.65;;
32333;SDS011;18810;53.040;8.850;2023-06-14T02:16:57;8.93;;;4.45;;
32333;SDS011;18810;53.040;8.850;2023-06-14T02:19:23;7.10;;;4.57;;
32333;SDS011;18810;53.040;8.850;2023-06-14T02:21:49;7.80;;;4.40;;
32333;SDS011;18810;53.040;8.850;2023-06-14T02:24:15;5.75;;;3.95;;
32333;SDS011;18810;53.040;8.850;2023-06-14T02:26:41;5.70;;;4.22;;
32333;SDS011;18810;53.040;8.850;2023-06-14T02:29:07;8.75;;;4.32;;
32333;SDS011;18810;53.040;8.850;2023-06-14T02:31:36;6.72;;;4.57;;
32333;SDS011;18810;53.040;8.850;2023-06-14T02:34:02;6.53;;;4.68;;
32333;SDS011;18810;53.040;8.850;2023-06-14T02:36:28;7.63;;;4.85;;
32333;SDS011;18810;53.040;8.850;2023-06-14T02:38:55;7.15;;;4.70;;
32333;SDS011;18810;53.040;8.850;2023-06-14T02:41:23;7.82;;;4.63;;
32333;SDS011;18810;53.040;8.850;2023-06-14T02:43:49;8.00;;;4.70;;
32333;SDS011;18810;53.040;8.850;2023-06-14T02:46:15;7.43;;;4.90;;
32333;SDS011;18810;53.040;8.850;2023-06-14T02:48:40;8.43;;;4.55;;
32333;SDS011;18810;53.040;8.850;2023-06-14T02:51:06;9.35;;;4.85;;
32333;SDS011;18810;53.040;8.850;2023-06-14T02:53:33;7.45;;;5.25;;
32333;SDS011;18810;53.040;8.850;2023-06-14T02:55:59;9.05;;;4.95;;
32333;SDS011;18810;53.040;8.850;2023-06-14T02:58:26;7.93;;;5.28;;
32333;SDS011;18810;53.040;8.850;2023-06-14T03:00:52;10.70;;;5.30;;
32333;SDS011;18810;53.040;8.850;2023-06-14T03:03:20;5.57;;;4.90;;
32333;SDS011;18810;53.040;8.850;2023-06-14T03:05:47;7.03;;;5.30;;
32333;SDS011;18810;53.040;8.850;2023-06-14T03:08:17;10.02;;;5.07;;
32333;SDS011;18810;53.040;8.850;2023-06-14T03:10:45;9.73;;;5.70;;
32333;SDS011;18810;53.040;8.850;2023-06-14T03:13:12;6.93;;;4.72;;
32333;SDS011;18810;53.040;8.850;2023-06-14T03:15:38;8.70;;;4.85;;
32333;SDS011;18810;53.040;8.850;2023-06-14T03:18:07;8.25;;;4.82;;
32333;SDS011;18810;53.040;8.850;2023-06-14T03:20:34;8.50;;;5.07;;
32333;SDS011;18810;53.040;8.850;2023-06-14T03:23:04;7.28;;;5.15;;
32333;SDS011;18810;53.040;8.850;2023-06-14T03:25:30;9.02;;;5.60;;
32333;SDS011;18810;53.040;8.850;2023-06-14T03:27:58;8.07;;;5.15;;
32333;SDS011;18810;53.040;8.850;2023-06-14T03:30:23;7.20;;;4.82;;
32333;SDS011;18810;53.040;8.850;2023-06-14T03:32:49;6.50;;;4.80;;
32333;SDS011;18810;53.040;8.850;2023-06-14T03:35:18;7.68;;;5.25;;
32333;SDS011;18810;53.040;8.850;2023-06-14T03:37:44;9.02;;;5.50;;
32333;SDS011;18810;53.040;8.850;2023-06-14T03:40:12;9.20;;;4.97;;
32333;SDS011;18810;53.040;8.850;2023-06-14T03:42:38;11.35;;;5.97;;
32333;SDS011;18810;53.040;8.850;2023-06-14T03:45:05;9.57;;;5.28;;
32333;SDS011;18810;53.040;8.850;2023-06-14T03:47:32;10.93;;;5.22;;
32333;SDS011;18810;53.040;8.850;2023-06-14T03:49:58;9.73;;;4.95;;
32333;SDS011;18810;53.040;8.850;2023-06-14T03:52:25;9.40;;;5.80;;
32333;SDS011;18810;53.040;8.850;2023-06-14T03:54:51;9.60;;;5.88;;
32333;SDS011;18810;53.040;8.850;2023-06-14T03:57:17;8.18;;;5.93;;
32333;SDS011;18810;53.040;8.850;2023-06-14T03:59:43;6.43;;;5.07;;
32333;SDS011;18810;53.040;8.850;2023-06-14T04:02:08;7.45;;;5.88;;
32333;SDS011;18810;53.040;8.850;2023-06-14T04:04:34;7.82;;;5.20;;
32333;SDS011;18810;53.040;8.850;2023-06-14T04:07:00;8.23;;;4.85;;
32333;SDS011;18810;53.040;8.850;2023-06-14T04:09:28;7.13;;;5.05;;
32333;SDS011;18810;53.040;8.850;2023-06-14T04:11:55;8.15;;;5.60;;
32333;SDS011;18810;53.040;8.850;2023-06-14T04:14:21;8.07;;;5.30;;
32333;SDS011;18810;53.040;8.850;2023-06-14T04:16:47;9.60;;;6.00;;
32333;SDS011;18810;53.040;8.850;2023-06-14T04:19:13;8.27;;;5.50;;
32333;SDS011;18810;53.040;8.850;2023-06-14T04:21:40;7.00;;;5.55;;
32333;SDS011;18810;53.040;8.850;2023-06-14T04:24:06;7.65;;;5.70;;
32333;SDS011;18810;53.040;8.850;2023-06-14T04:26:31;10.38;;;5.45;;
32333;SDS011;18810;53.040;8.850;2023-06-14T04:28:58;7.10;;;5.10;;
32333;SDS011;18810;53.040;8.850;2023-06-14T04:31:30;9.38;;;5.70;;
32333;SDS011;18810;53.040;8.850;2023-06-14T04:33:59;8.05;;;5.50;;
32333;SDS011;18810;53.040;8.850;2023-06-14T04:36:25;7.03;;;5.53;;
32333;SDS011;18810;53.040;8.850;2023-06-14T04:38:53;9.88;;;5.45;;
32333;SDS011;18810;53.040;8.850;2023-06-14T04:41:22;8.68;;;6.00;;
32333;SDS011;18810;53.040;8.850;2023-06-14T04:43:48;7.63;;;5.05;;
32333;SDS011;18810;53.040;8.850;2023-06-14T04:46:14;8.32;;;5.88;;
32333;SDS011;18810;53.040;8.850;2023-06-14T04:48:41;8.73;;;5.00;;
32333;SDS011;18810;53.040;8.850;2023-06-14T04:51:10;8.80;;;5.78;;
32333;SDS011;18810;53.040;8.850;2023-06-14T04:53:38;9.00;;;5.60;;
32333;SDS011;18810;53.040;8.850;2023-06-14T04:56:03;7.63;;;5.72;;
32333;SDS011;18810;53.040;8.850;2023-06-14T04:58:29;8.65;;;5.63;;
32333;SDS011;18810;53.040;8.850;2023-06-14T05:00:55;7.30;;;5.40;;
32333;SDS011;18810;53.040;8.850;2023-06-14T05:03:22;7.57;;;5.97;;
32333;SDS011;18810;53.040;8.850;2023-06-14T05:05:49;9.95;;;5.65;;
32333;SDS011;18810;53.040;8.850;2023-06-14T05:08:15;12.10;;;6.05;;
32333;SDS011;18810;53.040;8.850;2023-06-14T05:10:41;9.55;;;5.13;;
32333;SDS011;18810;53.040;8.850;2023-06-14T05:13:07;8.18;;;5.45;;
32333;SDS011;18810;53.040;8.850;2023-06-14T05:15:32;8.88;;;5.55;;
32333;SDS011;18810;53.040;8.850;2023-06-14T05:17:59;7.80;;;5.25;;
32333;SDS011;18810;53.040;8.850;2023-06-14T05:20:25;8.32;;;4.97;;
32333;SDS011;18810;53.040;8.850;2023-06-14T05:22:54;7.45;;;5.25;;
32333;SDS011;18810;53.040;8.850;2023-06-14T05:25:22;10.38;;;5.05;;
32333;SDS011;18810;53.040;8.850;2023-06-14T05:27:48;11.57;;;5.75;;
32333;SDS011;18810;53.040;8.850;2023-06-14T05:30:14;8.75;;;5.60;;
32333;SDS011;18810;53.040;8.850;2023-06-14T05:32:40;8.32;;;5.47;;
32333;SDS011;18810;53.040;8.850;2023-06-14T05:35:07;8.38;;;5.10;;
32333;SDS011;18810;53.040;8.850;2023-06-14T05:37:33;7.97;;;5.03;;
32333;SDS011;18810;53.040;8.850;2023-06-14T05:39:59;10.05;;;5.50;;
32333;SDS011;18810;53.040;8.850;2023-06-14T05:42:24;6.07;;;4.75;;
32333;SDS011;18810;53.040;8.850;2023-06-14T05:44:50;8.88;;;5.15;;
32333;SDS011;18810;53.040;8.850;2023-06-14T05:47:16;11.15;;;5.72;;
32333;SDS011;18810;53.040;8.850;2023-06-14T05:49:41;6.93;;;5.00;;
32333;SDS011;18810;53.040;8.850;2023-06-14T05:52:07;9.45;;;5.70;;
32333;SDS011;18810;53.040;8.850;2023-06-14T05:54:33;5.85;;;4.57;;
32333;SDS011;18810;53.040;8.850;2023-06-14T05:56:59;8.75;;;5.00;;
32333;SDS011;18810;53.040;8.850;2023-06-14T05:59:26;9.18;;;5.03;;
32333;SDS011;18810;53.040;8.850;2023-06-14T06:01:52;10.05;;;5.45;;
32333;SDS011;18810;53.040;8.850;2023-06-14T06:04:18;10.98;;;4.85;;
32333;SDS011;18810;53.040;8.850;2023-06-14T06:06:45;6.95;;;5.20;;
32333;SDS011;18810;53.040;8.850;2023-06-14T06:09:11;10.23;;;5.13;;
32333;SDS011;18810;53.040;8.850;2023-06-14T06:11:37;9.65;;;5.30;;
32333;SDS011;18810;53.040;8.850;2023-06-14T06:14:03;11.60;;;4.63;;
32333;SDS011;18810;53.040;8.850;2023-06-14T06:16:28;8.38;;;5.15;;
32333;SDS011;18810;53.040;8.850;2023-06-14T06:18:54;8.10;;;5.40;;
32333;SDS011;18810;53.040;8.850;2023-06-14T06:21:20;8.55;;;5.10;;
32333;SDS011;18810;53.040;8.850;2023-06-14T06:23:45;7.22;;;4.97;;
32333;SDS011;18810;53.040;8.850;2023-06-14T06:26:11;8.05;;;4.65;;
32333;SDS011;18810;53.040;8.850;2023-06-14T06:28:37;9.20;;;4.70;;
32333;SDS011;18810;53.040;8.850;2023-06-14T06:31:02;7.05;;;4.75;;
32333;SDS011;18810;53.040;8.850;2023-06-14T06:33:28;7.75;;;4.90;;
32333;SDS011;18810;53.040;8.850;2023-06-14T06:35:54;8.55;;;4.32;;
32333;SDS011;18810;53.040;8.850;2023-06-14T06:38:20;7.82;;;4.65;;
32333;SDS011;18810;53.040;8.850;2023-06-14T06:40:46;5.65;;;4.78;;
32333;SDS011;18810;53.040;8.850;2023-06-14T06:43:12;6.00;;;4.47;;
32333;SDS011;18810;53.040;8.850;2023-06-14T06:45:42;9.23;;;4.17;;
32333;SDS011;18810;53.040;8.850;2023-06-14T06:48:07;6.68;;;4.32;;
32333;SDS011;18810;53.040;8.850;2023-06-14T06:50:35;4.50;;;3.63;;
32333;SDS011;18810;53.040;8.850;2023-06-14T06:53:01;8.50;;;4.20;;
32333;SDS011;18810;53.040;8.850;2023-06-14T06:55:27;4.90;;;3.80;;
32333;SDS011;18810;53.040;8.850;2023-06-14T06:57:53;6.30;;;3.75;;
32333;SDS011;18810;53.040;8.850;2023-06-14T07:00:19;5.43;;;3.38;;
32333;SDS011;18810;53.040;8.850;2023-06-14T07:02:45;3.63;;;3.13;;
32333;SDS011;18810;53.040;8.850;2023-06-14T07:05:11;4.95;;;3.30;;
32333;SDS011;18810;53.040;8.850;2023-06-14T07:07:37;8.57;;;3.78;;
32333;SDS011;18810;53.040;8.850;2023-06-14T07:10:04;5.50;;;4.07;;
32333;SDS011;18810;53.040;8.850;2023-06-14T07:12:30;4.30;;;3.40;;
32333;SDS011;18810;53.040;8.850;2023-06-14T07:14:58;3.78;;;3.25;;
32333;SDS011;18810;53.040;8.850;2023-06-14T07:17:24;4.93;;;3.20;;
32333;SDS011;18810;53.040;8.850;2023-06-14T07:19:50;5.82;;;3.78;;
32333;SDS011;18810;53.040;8.850;2023-06-14T07:22:16;5.60;;;3.70;;
32333;SDS011;18810;53.040;8.850;2023-06-14T07:24:42;3.75;;;3.28;;
32333;SDS011;18810;53.040;8.850;2023-06-14T07:27:08;5.47;;;3.45;;
32333;SDS011;18810;53.040;8.850;2023-06-14T07:29:34;4.43;;;3.38;;
32333;SDS011;18810;53.040;8.850;2023-06-14T07:32:00;4.55;;;3.05;;
32333;SDS011;18810;53.040;8.850;2023-06-14T07:34:26;5.82;;;3.45;;
32333;SDS011;18810;53.040;8.850;2023-06-14T07:36:52;5.80;;;3.35;;
32333;SDS011;18810;53.040;8.850;2023-06-14T07:39:19;4.32;;;3.50;;
32333;SDS011;18810;53.040;8.850;2023-06-14T07:41:44;5.45;;;3.63;;
32333;SDS011;18810;53.040;8.850;2023-06-14T07:44:10;4.20;;;3.58;;
32333;SDS011;18810;53.040;8.850;2023-06-14T07:46:37;3.65;;;2.80;;
32333;SDS011;18810;53.040;8.850;2023-06-14T07:49:03;4.30;;;3.03;;
32333;SDS011;18810;53.040;8.850;2023-06-14T07:51:29;6.65;;;3.58;;
32333;SDS011;18810;53.040;8.850;2023-06-14T07:53:54;3.88;;;2.92;;
32333;SDS011;18810;53.040;8.850;2023-06-14T07:56:21;3.60;;;2.83;;
32333;SDS011;18810;53.040;8.850;2023-06-14T07:58:48;4.07;;;2.97;;
32333;SDS011;18810;53.040;8.850;2023-06-14T08:01:13;3.50;;;3.10;;
32333;SDS011;18810;53.040;8.850;2023-06-14T08:03:40;3.50;;;3.20;;
32333;SDS011;18810;53.040;8.850;2023-06-14T08:06:06;3.42;;;3.13;;
32333;SDS011;18810;53.040;8.850;2023-06-14T08:08:32;4.47;;;3.10;;
32333;SDS011;18810;53.040;8.850;2023-06-14T08:10:58;3.65;;;3.17;;
32333;SDS011;18810;53.040;8.850;2023-06-14T08:13:24;4.70;;;2.70;;
32333;SDS011;18810;53.040;8.850;2023-06-14T08:15:49;4.20;;;3.20;;
32333;SDS011;18810;53.040;8.850;2023-06-14T08:18:15;3.53;;;2.83;;
32333;SDS011;18810;53.040;8.850;2023-06-14T08:20:41;4.43;;;2.40;;
32333;SDS011;18810;53.040;8.850;2023-06-14T08:23:06;3.60;;;2.50;;
32333;SDS011;18810;53.040;8.850;2023-06-14T08:25:34;3.88;;;2.92;;
32333;SDS011;18810;53.040;8.850;2023-06-14T08:28:00;2.83;;;2.50;;
32333;SDS011;18810;53.040;8.850;2023-06-14T08:30:25;3.95;;;3.03;;
32333;SDS011;18810;53.040;8.850;2023-06-14T08:32:51;3.75;;;2.70;;
32333;SDS011;18810;53.040;8.850;2023-06-14T08:35:20;3.75;;;3.00;;
32333;SDS011;18810;53.040;8.850;2023-06-14T08:37:46;3.33;;;2.75;;
32333;SDS011;18810;53.040;8.850;2023-06-14T08:40:20;4.13;;;3.05;;
32333;SDS011;18810;53.040;8.850;2023-06-14T08:42:47;2.90;;;2.70;;
32333;SDS011;18810;53.040;8.850;2023-06-14T08:45:16;2.55;;;2.35;;
32333;SDS011;18810;53.040;8.850;2023-06-14T08:47:43;4.75;;;3.03;;
32333;SDS011;18810;53.040;8.850;2023-06-14T08:50:10;4.95;;;2.97;;
32333;SDS011;18810;53.040;8.850;2023-06-14T08:52:37;3.25;;;2.45;;
32333;SDS011;18810;53.040;8.850;2023-06-14T08:55:06;4.18;;;2.97;;
32333;SDS011;18810;53.040;8.850;2023-06-14T08:57:34;4.00;;;2.67;;
32333;SDS011;18810;53.040;8.850;2023-06-14T09:00:03;5.25;;;3.00;;
32333;SDS011;18810;53.040;8.850;2023-06-14T09:02:37;3.08;;;2.78;;
32333;SDS011;18810;53.040;8.850;2023-06-14T09:05:03;3.33;;;2.33;;
32333;SDS011;18810;53.040;8.850;2023-06-14T09:07:29;3.25;;;2.95;;
32333;SDS011;18810;53.040;8.850;2023-06-14T09:10:06;5.85;;;2.67;;
32333;SDS011;18810;53.040;8.850;2023-06-14T09:12:36;3.63;;;2.78;;
32333;SDS011;18810;53.040;8.850;2023-06-14T09:15:03;4.22;;;2.58;;
32333;SDS011;18810;53.040;8.850;2023-06-14T09:17:34;4.32;;;2.78;;
32333;SDS011;18810;53.040;8.850;2023-06-14T09:20:10;4.50;;;2.90;;
32333;SDS011;18810;53.040;8.850;2023-06-14T09:22:38;3.65;;;2.65;;
32333;SDS011;18810;53.040;8.850;2023-06-14T09:25:04;3.00;;;2.72;;
32333;SDS011;18810;53.040;8.850;2023-06-14T09:27:32;4.25;;;2.92;;
32333;SDS011;18810;53.040;8.850;2023-06-14T09:29:58;3.85;;;2.58;;
32333;SDS011;18810;53.040;8.850;2023-06-14T09:32:24;6.15;;;2.70;;
32333;SDS011;18810;53.040;8.850;2023-06-14T09:34:50;5.30;;;3.30;;
32333;SDS011;18810;53.040;8.850;2023-06-14T09:37:26;4.20;;;2.90;;
32333;SDS011;18810;53.040;8.850;2023-06-14T09:39:55;6.18;;;3.10;;
32333;SDS011;18810;53.040;8.850;2023-06-14T09:42:21;4.07;;;2.92;;
32333;SDS011;18810;53.040;8.850;2023-06-14T09:44:50;5.00;;;2.70;;
32333;SDS011;18810;53.040;8.850;2023-06-14T09:47:17;4.90;;;2.97;;
32333;SDS011;18810;53.040;8.850;2023-06-14T09:49:43;4.30;;;2.92;;
32333;SDS011;18810;53.040;8.850;2023-06-14T09:52:19;4.95;;;3.47;;
32333;SDS011;18810;53.040;8.850;2023-06-14T09:54:46;5.03;;;2.90;;
32333;SDS011;18810;53.040;8.850;2023-06-14T09:57:15;3.58;;;2.75;;
32333;SDS011;18810;53.040;8.850;2023-06-14T09:59:46;6.97;;;3.50;;
32333;SDS011;18810;53.040;8.850;2023-06-14T10:04:53;3.80;;;3.25;;
32333;SDS011;18810;53.040;8.850;2023-06-14T10:07:26;3.65;;;2.53;;
32333;SDS011;18810;53.040;8.850;2023-06-14T10:09:55;4.97;;;3.03;;
32333;SDS011;18810;53.040;8.850;2023-06-14T10:12:21;8.68;;;2.80;;
32333;SDS011;18810;53.040;8.850;2023-06-14T10:14:51;7.90;;;3.20;;
32333;SDS011;18810;53.040;8.850;2023-06-14T10:23:12;4.40;;;3.25;;
32333;SDS011;18810;53.040;8.850;2023-06-14T10:25:43;3.40;;;3.08;;
32333;SDS011;18810;53.040;8.850;2023-06-14T10:34:20;3.85;;;3.40;;
32333;SDS011;18810;53.040;8.850;2023-06-14T10:41:52;5.28;;;4.07;;
32333;SDS011;18810;53.040;8.850;2023-06-14T10:46:54;4.15;;;3.53;;
32333;SDS011;18810;53.040;8.850;2023-06-14T10:52:33;5.72;;;3.58;;
32333;SDS011;18810;53.040;8.850;2023-06-14T10:55:10;6.85;;;3.88;;
32333;SDS011;18810;53.040;8.850;2023-06-14T10:57:48;6.97;;;3.60;;
32333;SDS011;18810;53.040;8.850;2023-06-14T11:00:28;6.85;;;3.53;;
32333;SDS011;18810;53.040;8.850;2023-06-14T11:05:53;7.22;;;3.30;;
32333;SDS011;18810;53.040;8.850;2023-06-14T11:11:05;9.05;;;3.67;;
32333;SDS011;18810;53.040;8.850;2023-06-14T11:13:32;6.35;;;4.00;;
32333;SDS011;18810;53.040;8.850;2023-06-14T11:15:58;6.38;;;3.90;;
32333;SDS011;18810;53.040;8.850;2023-06-14T11:18:24;6.85;;;3.70;;
32333;SDS011;18810;53.040;8.850;2023-06-14T11:20:52;5.55;;;3.65;;
32333;SDS011;18810;53.040;8.850;2023-06-14T11:23:18;6.63;;;3.97;;
32333;SDS011;18810;53.040;8.850;2023-06-14T11:25:49;6.50;;;3.72;;
32333;SDS011;18810;53.040;8.850;2023-06-14T11:28:16;5.97;;;3.63;;
32333;SDS011;18810;53.040;8.850;2023-06-14T11:30:42;6.75;;;3.85;;
32333;SDS011;18810;53.040;8.850;2023-06-14T11:33:09;5.68;;;3.67;;
32333;SDS011;18810;53.040;8.850;2023-06-14T11:35:35;9.90;;;4.03;;
32333;SDS011;18810;53.040;8.850;2023-06-14T11:38:01;5.88;;;3.63;;
32333;SDS011;18810;53.040;8.850;2023-06-14T11:40:27;4.90;;;3.70;;
32333;SDS011;18810;53.040;8.850;2023-06-14T11:43:00;4.40;;;3.67;;
32333;SDS011;18810;53.040;8.850;2023-06-14T11:45:27;4.95;;;3.70;;
32333;SDS011;18810;53.040;8.850;2023-06-14T11:47:54;7.70;;;4.28;;
32333;SDS011;18810;53.040;8.850;2023-06-14T11:50:21;5.00;;;3.45;;
32333;SDS011;18810;53.040;8.850;2023-06-14T11:52:54;8.88;;;3.67;;
32333;SDS011;18810;53.040;8.850;2023-06-14T11:55:21;5.45;;;3.63;;
32333;SDS011;18810;53.040;8.850;2023-06-14T11:57:47;4.80;;;3.30;;
32333;SDS011;18810;53.040;8.850;2023-06-14T12:00:13;4.00;;;3.60;;
32333;SDS011;18810;53.040;8.850;2023-06-14T12:02:40;6.20;;;4.10;;
32333;SDS011;18810;53.040;8.850;2023-06-14T12:05:07;7.15;;;4.10;;
32333;SDS011;18810;53.040;8.850;2023-06-14T12:07:35;7.22;;;3.42;;
32333;SDS011;18810;53.040;8.850;2023-06-14T12:10:05;4.72;;;3.85;;
32333;SDS011;18810;53.040;8.850;2023-06-14T12:12:34;4.82;;;3.88;;
32333;SDS011;18810;53.040;8.850;2023-06-14T12:15:04;7.93;;;4.07;;
32333;SDS011;18810;53.040;8.850;2023-06-14T12:17:35;7.07;;;3.70;;
32333;SDS011;18810;53.040;8.850;2023-06-14T12:20:07;6.70;;;4.05;;
32333;SDS011;18810;53.040;8.850;2023-06-14T12:22:39;6.10;;;4.32;;
32333;SDS011;18810;53.040;8.850;2023-06-14T12:25:22;6.63;;;4.45;;
32333;SDS011;18810;53.040;8.850;2023-06-14T12:27:58;5.95;;;4.05;;
32333;SDS011;18810;53.040;8.850;2023-06-14T12:30:28;4.80;;;3.55;;
32333;SDS011;18810;53.040;8.850;2023-06-14T12:32:54;5.40;;;3.80;;
32333;SDS011;18810;53.040;8.850;2023-06-14T12:35:20;3.97;;;3.60;;
32333;SDS011;18810;53.040;8.850;2023-06-14T12:37:46;5.53;;;3.85;;
32333;SDS011;18810;53.040;8.850;2023-06-14T12:40:12;5.07;;;3.45;;
32333;SDS011;18810;53.040;8.850;2023-06-14T12:42:39;5.28;;;3.85;;
32333;SDS011;18810;53.040;8.850;2023-06-14T12:45:06;5.22;;;4.25;;
32333;SDS011;18810;53.040;8.850;2023-06-14T12:47:32;10.38;;;4.45;;
32333;SDS011;18810;53.040;8.850;2023-06-14T12:49:57;5.32;;;3.83;;
32333;SDS011;18810;53.040;8.850;2023-06-14T12:52:23;6.78;;;3.72;;
32333;SDS011;18810;53.040;8.850;2023-06-14T12:54:49;8.02;;;4.25;;
32333;SDS011;18810;53.040;8.850;2023-06-14T12:57:15;7.07;;;4.15;;
32333;SDS011;18810;53.040;8.850;2023-06-14T12:59:41;5.10;;;3.60;;
32333;SDS011;18810;53.040;8.850;2023-06-14T13:02:13;6.22;;;4.20;;
32333;SDS011;18810;53.040;8.850;2023-06-14T13:04:41;8.02;;;4.00;;
32333;SDS011;18810;53.040;8.850;2023-06-14T13:07:06;5.22;;;3.90;;
32333;SDS011;18810;53.040;8.850;2023-06-14T13:09:32;6.18;;;4.28;;
32333;SDS011;18810;53.040;8.850;2023-06-14T13:11:58;8.80;;;4.50;;
32333;SDS011;18810;53.040;8.850;2023-06-14T13:14:23;5.88;;;3.83;;
32333;SDS011;18810;53.040;8.850;2023-06-14T13:16:49;8.95;;;4.15;;
32333;SDS011;18810;53.040;8.850;2023-06-14T13:19:15;6.72;;;3.83;;
32333;SDS011;18810;53.040;8.850;2023-06-14T13:21:41;4.97;;;4.20;;
32333;SDS011;18810;53.040;8.850;2023-06-14T13:24:07;5.45;;;4.00;;
32333;SDS011;18810;53.040;8.850;2023-06-14T13:26:33;9.25;;;4.20;;
32333;SDS011;18810;53.040;8.850;2023-06-14T13:29:00;6.07;;;3.88;;
32333;SDS011;18810;53.040;8.850;2023-06-14T13:31:26;8.57;;;4.05;;
32333;SDS011;18810;53.040;8.850;2023-06-14T13:33:51;6.95;;;4.60;;
32333;SDS011;18810;53.040;8.850;2023-06-14T13:36:17;8.85;;;4.20;;
32333;SDS011;18810;53.040;8.850;2023-06-14T13:38:43;8.15;;;4.45;;
32333;SDS011;18810;53.040;8.850;2023-06-14T13:41:08;5.80;;;3.80;;
32333;SDS011;18810;53.040;8.850;2023-06-14T13:43:34;5.65;;;3.90;;
32333;SDS011;18810;53.040;8.850;2023-06-14T13:46:00;5.60;;;4.28;;
32333;SDS011;18810;53.040;8.850;2023-06-14T13:48:25;5.07;;;3.70;;
32333;SDS011;18810;53.040;8.850;2023-06-14T13:50:51;5.35;;;4.30;;
32333;SDS011;18810;53.040;8.850;2023-06-14T13:53:17;7.38;;;4.05;;
32333;SDS011;18810;53.040;8.850;2023-06-14T13:55:43;5.20;;;3.80;;
32333;SDS011;18810;53.040;8.850;2023-06-14T13:58:09;7.82;;;4.40;;
32333;SDS011;18810;53.040;8.850;2023-06-14T14:00:35;4.70;;;4.30;;
32333;SDS011;18810;53.040;8.850;2023-06-14T14:03:05;5.70;;;4.07;;
32333;SDS011;18810;53.040;8.850;2023-06-14T14:05:31;5.72;;;4.45;;
32333;SDS011;18810;53.040;8.850;2023-06-14T14:07:57;4.85;;;4.00;;
32333;SDS011;18810;53.040;8.850;2023-06-14T14:10:26;9.70;;;4.20;;
32333;SDS011;18810;53.040;8.850;2023-06-14T14:12:52;4.40;;;4.00;;
32333;SDS011;18810;53.040;8.850;2023-06-14T14:15:19;7.60;;;4.90;;
32333;SDS011;18810;53.040;8.850;2023-06-14T14:17:45;6.28;;;3.78;;
32333;SDS011;18810;53.040;8.850;2023-06-14T14:20:12;5.65;;;4.10;;
32333;SDS011;18810;53.040;8.850;2023-06-14T14:22:40;5.00;;;4.10;;
32333;SDS011;18810;53.040;8.850;2023-06-14T14:25:06;5.13;;;4.05;;
32333;SDS011;18810;53.040;8.850;2023-06-14T14:27:32;9.73;;;4.03;;
32333;SDS011;18810;53.040;8.850;2023-06-14T14:29:58;6.80;;;4.20;;
32333;SDS011;18810;53.040;8.850;2023-06-14T14:32:24;6.70;;;4.13;;
32333;SDS011;18810;53.040;8.850;2023-06-14T14:34:50;7.68;;;4.30;;
32333;SDS011;18810;53.040;8.850;2023-06-14T14:37:16;10.43;;;4.60;;
32333;SDS011;18810;53.040;8.850;2023-06-14T14:39:43;4.53;;;3.78;;
32333;SDS011;18810;53.040;8.850;2023-06-14T14:42:10;7.00;;;4.00;;
32333;SDS011;18810;53.040;8.850;2023-06-14T14:44:37;5.82;;;3.97;;
32333;SDS011;18810;53.040;8.850;2023-06-14T14:47:03;5.07;;;4.40;;
32333;SDS011;18810;53.040;8.850;2023-06-14T14:49:30;8.90;;;4.22;;
32333;SDS011;18810;53.040;8.850;2023-06-14T14:51:56;9.43;;;4.43;;
32333;SDS011;18810;53.040;8.850;2023-06-14T14:54:22;7.85;;;4.63;;
32333;SDS011;18810;53.040;8.850;2023-06-14T14:56:48;6.43;;;4.20;;
32333;SDS011;18810;53.040;8.850;2023-06-14T14:59:14;6.65;;;4.38;;
32333;SDS011;18810;53.040;8.850;2023-06-14T15:01:40;6.45;;;4.15;;
32333;SDS011;18810;53.040;8.850;2023-06-14T15:04:06;6.07;;;4.18;;
32333;SDS011;18810;53.040;8.850;2023-06-14T15:06:31;6.57;;;4.30;;
32333;SDS011;18810;53.040;8.850;2023-06-14T15:09:00;5.95;;;4.03;;
32333;SDS011;18810;53.040;8.850;2023-06-14T15:11:26;5.57;;;4.22;;
32333;SDS011;18810;53.040;8.850;2023-06-14T15:13:52;7.85;;;4.55;;
32333;SDS011;18810;53.040;8.850;2023-06-14T15:16:18;6.30;;;5.00;;
32333;SDS011;18810;53.040;8.850;2023-06-14T15:18:44;6.70;;;4.22;;
32333;SDS011;18810;53.040;8.850;2023-06-14T15:21:10;7.15;;;4.45;;
32333;SDS011;18810;53.040;8.850;2023-06-14T15:23:36;5.13;;;4.53;;
32333;SDS011;18810;53.040;8.850;2023-06-14T15:26:02;5.18;;;3.85;;